📊 Raw Sensor Data
Showing records 49701 to 49725 of 85,123 total
| ID | Distance (ft) | Battery V | Battery A | Int Temp (°F) | Int Humid (%) | Ext Temp (°F) | Solar V | RSSI | SNR | Time Stamp |
|---|---|---|---|---|---|---|---|---|---|---|
| 35435 | 15.4 | 4.03 | 0 | 66 | 39 | 63 | 5.10 | -80 | 8 | 03/19/2025 02:00 PM |
| 35434 | 15.2 | 4.03 | 0 | 64 | 40 | 61 | 5.10 | -79 | 7 | 03/19/2025 01:45 PM |
| 35433 | -- | 4.03 | 0 | 63 | 40 | 61 | 5.10 | -78 | 8 | 03/19/2025 01:30 PM |
| 35432 | -- | 4.05 | 0 | 63 | 40 | 60 | 5.10 | -79 | 9 | 03/19/2025 01:15 PM |
| 35431 | 15.3 | 4.13 | 72 | 64 | 39 | 60 | 4.50 | -79 | 7 | 03/19/2025 01:00 PM |
| 35430 | 15.3 | 4.02 | 5 | 65 | 38 | 61 | 5.10 | -81 | 8 | 03/19/2025 12:46 PM |
| 35429 | 15.3 | 4.02 | 5 | 66 | 37 | 62 | 5.10 | -80 | 6 | 03/19/2025 12:30 PM |
| 35428 | -- | 4.02 | 0 | 65 | 37 | 61 | 5.10 | -79 | 8 | 03/19/2025 12:15 PM |
| 35427 | 15.3 | 4.02 | 5 | 64 | 37 | 61 | 5.10 | -79 | 8 | 03/19/2025 12:00 PM |
| 35426 | 15.4 | 4.14 | 5 | 63 | 37 | 60 | 5.10 | -79 | 7 | 03/19/2025 11:45 AM |
| 35425 | 15.4 | 4.05 | 5 | 63 | 36 | 60 | 5.10 | -79 | 8 | 03/19/2025 11:30 AM |
| 35424 | 15.5 | 4.02 | 5 | 62 | 36 | 60 | 5.10 | -80 | 7 | 03/19/2025 11:15 AM |
| 35423 | 15.5 | 4.02 | 5 | 61 | 36 | 61 | 5.10 | -81 | 8 | 03/19/2025 11:00 AM |
| 35422 | 15.4 | 4.01 | 5 | 59 | 35 | 59 | 5.10 | -79 | 8 | 03/19/2025 10:45 AM |
| 35421 | 15.5 | 4.01 | 0 | 57 | 35 | 61 | 5.10 | -80 | 7 | 03/19/2025 10:30 AM |
| 35420 | 15.4 | 4.01 | 0 | 55 | 35 | 60 | 5.10 | -80 | 8 | 03/19/2025 10:15 AM |
| 35419 | 15.4 | 4.01 | 0 | 52 | 36 | 55 | 5.10 | -80 | 8 | 03/19/2025 10:00 AM |
| 35418 | 15.4 | 4.02 | 5 | 52 | 35 | 56 | 5.10 | -78 | 7 | 03/19/2025 09:45 AM |
| 35417 | 15.5 | 4.01 | 0 | 50 | 35 | 56 | 5.10 | -78 | 7 | 03/19/2025 09:30 AM |
| 35416 | 15.5 | 4.01 | 0 | 48 | 35 | 54 | 5.10 | -78 | 8 | 03/19/2025 09:15 AM |
| 35415 | 15.3 | 4.01 | 0 | 45 | 36 | 49 | 5.10 | -76 | 9 | 03/19/2025 09:00 AM |
| 35414 | 15.3 | 4.02 | 5 | 42 | 36 | 50 | 5.10 | -76 | 8 | 03/19/2025 08:45 AM |
| 35413 | 15.3 | 4.02 | 5 | 39 | 37 | 48 | 5.10 | -76 | 8 | 03/19/2025 08:30 AM |
| 35412 | 15.2 | 4.07 | 19 | 37 | 37 | 41 | 4.50 | -77 | 8 | 03/19/2025 08:15 AM |
| 35411 | 15.3 | 4.00 | 15 | 36 | 37 | 38 | 4.50 | -76 | 9 | 03/19/2025 08:00 AM |